sensor_id;sensor_type;location;lat;lon;timestamp;pressure;altitude;pressure_sealevel;temperature;humidity
31775;BME280;66189;49.000;11.640;2023-05-23T00:01:23;95577.97;;;17.03;61.05
31775;BME280;66189;49.000;11.640;2023-05-23T00:03:27;95581.56;;;16.97;61.45
31775;BME280;66189;49.000;11.640;2023-05-23T00:05:27;95580.03;;;16.96;61.28
31775;BME280;66189;49.000;11.640;2023-05-23T00:07:28;95586.72;;;16.87;61.50
31775;BME280;66189;49.000;11.640;2023-05-23T00:09:28;95584.78;;;16.88;61.61
31775;BME280;66189;49.000;11.640;2023-05-23T00:11:29;95576.31;;;16.82;61.76
31775;BME280;66189;49.000;11.640;2023-05-23T00:13:30;95572.84;;;16.78;61.98
31775;BME280;66189;49.000;11.640;2023-05-23T00:15:40;95578.34;;;16.71;62.31
31775;BME280;66189;49.000;11.640;2023-05-23T00:17:41;95579.44;;;16.77;62.08
31775;BME280;66189;49.000;11.640;2023-05-23T00:19:41;95581.47;;;16.69;62.39
31775;BME280;66189;49.000;11.640;2023-05-23T00:21:46;95581.81;;;16.75;62.39
31775;BME280;66189;49.000;11.640;2023-05-23T00:23:50;95579.19;;;16.68;62.69
31775;BME280;66189;49.000;11.640;2023-05-23T00:25:50;95586.47;;;16.75;62.72
31775;BME280;66189;49.000;11.640;2023-05-23T00:27:55;95582.25;;;16.70;62.94
31775;BME280;66189;49.000;11.640;2023-05-23T00:29:55;95576.94;;;16.59;63.06
31775;BME280;66189;49.000;11.640;2023-05-23T00:31:56;95590.50;;;16.63;62.95
31775;BME280;66189;49.000;11.640;2023-05-23T00:33:56;95593.22;;;16.59;63.11
31775;BME280;66189;49.000;11.640;2023-05-23T00:35:56;95599.81;;;16.62;63.30
31775;BME280;66189;49.000;11.640;2023-05-23T00:37:57;95597.56;;;16.57;63.75
31775;BME280;66189;49.000;11.640;2023-05-23T00:39:57;95602.88;;;16.64;63.11
31775;BME280;66189;49.000;11.640;2023-05-23T00:41:58;95597.03;;;16.69;62.91
31775;BME280;66189;49.000;11.640;2023-05-23T00:43:59;95600.94;;;16.64;62.51
31775;BME280;66189;49.000;11.640;2023-05-23T00:46:00;95608.13;;;16.47;63.30
31775;BME280;66189;49.000;11.640;2023-05-23T00:48:02;95611.72;;;16.37;63.26
31775;BME280;66189;49.000;11.640;2023-05-23T00:50:03;95606.34;;;16.30;63.85
31775;BME280;66189;49.000;11.640;2023-05-23T00:52:04;95612.66;;;16.20;64.54
31775;BME280;66189;49.000;11.640;2023-05-23T00:54:05;95614.56;;;16.23;64.36
31775;BME280;66189;49.000;11.640;2023-05-23T00:56:06;95609.94;;;16.20;64.59
31775;BME280;66189;49.000;11.640;2023-05-23T00:58:06;95603.41;;;16.13;64.92
31775;BME280;66189;49.000;11.640;2023-05-23T01:00:07;95605.38;;;16.09;65.19
31775;BME280;66189;49.000;11.640;2023-05-23T01:02:11;95605.38;;;16.09;65.23
31775;BME280;66189;49.000;11.640;2023-05-23T01:04:12;95607.38;;;16.05;65.41
31775;BME280;66189;49.000;11.640;2023-05-23T01:06:13;95617.81;;;16.07;65.44
31775;BME280;66189;49.000;11.640;2023-05-23T01:08:13;95613.09;;;16.14;65.00
31775;BME280;66189;49.000;11.640;2023-05-23T01:10:18;95614.31;;;16.10;65.45
31775;BME280;66189;49.000;11.640;2023-05-23T01:16:57;95627.91;;;16.03;66.30
31775;BME280;66189;49.000;11.640;2023-05-23T01:19:19;95627.53;;;16.04;66.23
31775;BME280;66189;49.000;11.640;2023-05-23T01:21:27;95633.41;;;15.95;66.73
31775;BME280;66189;49.000;11.640;2023-05-23T01:24:06;95629.91;;;15.95;66.99
31775;BME280;66189;49.000;11.640;2023-05-23T01:26:21;95624.94;;;15.90;67.28
31775;BME280;66189;49.000;11.640;2023-05-23T01:28:34;95629.91;;;15.95;67.20
31775;BME280;66189;49.000;11.640;2023-05-23T01:30:39;95627.66;;;15.90;67.58
31775;BME280;66189;49.000;11.640;2023-05-23T01:32:40;95630.28;;;15.97;67.33
31775;BME280;66189;49.000;11.640;2023-05-23T01:34:42;95618.63;;;16.04;67.50
31775;BME280;66189;49.000;11.640;2023-05-23T01:36:43;95616.63;;;16.08;67.41
31775;BME280;66189;49.000;11.640;2023-05-23T01:38:44;95618.16;;;16.09;67.58
31775;BME280;66189;49.000;11.640;2023-05-23T01:40:44;95613.09;;;16.14;67.47
31775;BME280;66189;49.000;11.640;2023-05-23T01:42:45;95620.13;;;16.05;67.82
31775;BME280;66189;49.000;11.640;2023-05-23T01:44:46;95606.53;;;16.12;67.62
31775;BME280;66189;49.000;11.640;2023-05-23T01:46:47;95615.91;;;16.00;68.04
31775;BME280;66189;49.000;11.640;2023-05-23T01:48:48;95618.94;;;16.09;67.75
31775;BME280;66189;49.000;11.640;2023-05-23T01:50:49;95617.75;;;16.14;67.53
31775;BME280;66189;49.000;11.640;2023-05-23T01:52:50;95622.84;;;16.05;68.17
31775;BME280;66189;49.000;11.640;2023-05-23T01:54:51;95620.19;;;16.01;68.20
31775;BME280;66189;49.000;11.640;2023-05-23T01:56:53;95625.22;;;16.03;68.09
31775;BME280;66189;49.000;11.640;2023-05-23T01:58:53;95615.56;;;15.98;68.05
31775;BME280;66189;49.000;11.640;2023-05-23T02:00:55;95617.97;;;15.89;68.66
31775;BME280;66189;49.000;11.640;2023-05-23T02:02:55;95612.09;;;15.94;68.37
31775;BME280;66189;49.000;11.640;2023-05-23T02:04:56;95605.47;;;15.98;68.34
31775;BME280;66189;49.000;11.640;2023-05-23T02:06:57;95610.47;;;16.04;68.46
31775;BME280;66189;49.000;11.640;2023-05-23T02:08:58;95610.56;;;15.93;68.96
31775;BME280;66189;49.000;11.640;2023-05-23T02:10:58;95604.25;;;16.07;68.66
31775;BME280;66189;49.000;11.640;2023-05-23T02:12:59;95606.97;;;16.03;69.09
31775;BME280;66189;49.000;11.640;2023-05-23T02:15:01;95603.56;;;15.95;69.52
31775;BME280;66189;49.000;11.640;2023-05-23T02:17:04;95618.97;;;16.06;69.22
31775;BME280;66189;49.000;11.640;2023-05-23T02:19:04;95616.31;;;16.02;69.28
31775;BME280;66189;49.000;11.640;2023-05-23T02:21:05;95613.16;;;16.07;69.03
31775;BME280;66189;49.000;11.640;2023-05-23T02:23:05;95610.78;;;16.13;68.92
31775;BME280;66189;49.000;11.640;2023-05-23T02:25:06;95608.19;;;15.98;69.74
31775;BME280;66189;49.000;11.640;2023-05-23T02:27:07;95616.25;;;16.06;69.65
31775;BME280;66189;49.000;11.640;2023-05-23T02:29:07;95617.06;;;16.03;69.62
31775;BME280;66189;49.000;11.640;2023-05-23T02:31:08;95618.16;;;16.12;69.38
31775;BME280;66189;49.000;11.640;2023-05-23T02:33:08;95619.03;;;16.02;70.12
31775;BME280;66189;49.000;11.640;2023-05-23T02:35:10;95613.09;;;16.14;69.40
31775;BME280;66189;49.000;11.640;2023-05-23T02:37:13;95619.78;;;16.03;69.85
31775;BME280;66189;49.000;11.640;2023-05-23T02:39:14;95622.50;;;16.03;69.95
31775;BME280;66189;49.000;11.640;2023-05-23T02:41:16;95623.25;;;16.03;69.92
31775;BME280;66189;49.000;11.640;2023-05-23T02:43:16;95616.31;;;16.02;69.93
31775;BME280;66189;49.000;11.640;2023-05-23T02:45:17;95621.66;;;16.09;69.59
31775;BME280;66189;49.000;11.640;2023-05-23T02:47:17;95616.22;;;16.13;69.66
31775;BME280;66189;49.000;11.640;2023-05-23T02:49:18;95618.91;;;16.13;69.65
31775;BME280;66189;49.000;11.640;2023-05-23T02:51:18;95627.06;;;16.09;69.97
31775;BME280;66189;49.000;11.640;2023-05-23T02:53:19;95624.00;;;16.07;70.44
31775;BME280;66189;49.000;11.640;2023-05-23T02:55:19;95613.59;;;16.02;70.27
31775;BME280;66189;49.000;11.640;2023-05-23T02:57:23;95619.44;;;15.97;70.66
31775;BME280;66189;49.000;11.640;2023-05-23T02:59:24;95619.47;;;15.93;70.59
31775;BME280;66189;49.000;11.640;2023-05-23T03:01:26;95622.94;;;15.94;70.54
31775;BME280;66189;49.000;11.640;2023-05-23T03:03:26;95619.53;;;15.86;70.80
31775;BME280;66189;49.000;11.640;2023-05-23T03:05:28;95619.91;;;15.85;70.82
31775;BME280;66189;49.000;11.640;2023-05-23T03:07:28;95625.00;;;15.83;70.81
31775;BME280;66189;49.000;11.640;2023-05-23T03:09:29;95616.50;;;15.80;71.05
31775;BME280;66189;49.000;11.640;2023-05-23T03:11:30;95611.47;;;15.72;71.42
31775;BME280;66189;49.000;11.640;2023-05-23T03:13:33;95611.09;;;15.73;71.29
31775;BME280;66189;49.000;11.640;2023-05-23T03:15:34;95612.63;;;15.71;71.41
31775;BME280;66189;49.000;11.640;2023-05-23T03:17:34;95616.16;;;15.68;71.60
31775;BME280;66189;49.000;11.640;2023-05-23T03:19:35;95613.09;;;15.62;71.63
31775;BME280;66189;49.000;11.640;2023-05-23T03:21:36;95608.06;;;15.64;71.50
31775;BME280;66189;49.000;11.640;2023-05-23T03:23:36;95608.44;;;15.62;71.82
31775;BME280;66189;49.000;11.640;2023-05-23T03:25:37;95611.56;;;15.61;71.69
31775;BME280;66189;49.000;11.640;2023-05-23T03:27:38;95607.31;;;15.60;71.91
31775;BME280;66189;49.000;11.640;2023-05-23T03:29:38;95601.91;;;15.56;72.33
31775;BME280;66189;49.000;11.640;2023-05-23T03:31:39;95608.91;;;15.54;71.98
31775;BME280;66189;49.000;11.640;2023-05-23T03:33:39;95609.66;;;15.54;72.04
31775;BME280;66189;49.000;11.640;2023-05-23T03:35:40;95607.69;;;15.58;71.96
31775;BME280;66189;49.000;11.640;2023-05-23T03:37:40;95611.66;;;15.46;72.98
31775;BME280;66189;49.000;11.640;2023-05-23T03:39:41;95611.16;;;15.62;72.14
31775;BME280;66189;49.000;11.640;2023-05-23T03:41:41;95614.28;;;15.61;72.28
31775;BME280;66189;49.000;11.640;2023-05-23T03:43:42;95618.94;;;15.57;72.74
31775;BME280;66189;49.000;11.640;2023-05-23T03:45:43;95624.69;;;15.66;72.07
31775;BME280;66189;49.000;11.640;2023-05-23T03:47:47;95620.38;;;15.72;72.03
31775;BME280;66189;49.000;11.640;2023-05-23T03:49:47;95627.41;;;15.66;72.12
31775;BME280;66189;49.000;11.640;2023-05-23T03:51:48;95618.50;;;15.66;72.09
31775;BME280;66189;49.000;11.640;2023-05-23T03:53:50;95624.72;;;15.62;72.12
31775;BME280;66189;49.000;11.640;2023-05-23T03:55:51;95630.25;;;15.41;72.73
31775;BME280;66189;49.000;11.640;2023-05-23T03:57:53;95633.69;;;15.49;72.50
31775;BME280;66189;49.000;11.640;2023-05-23T03:59:54;95634.97;;;15.30;73.15
31775;BME280;66189;49.000;11.640;2023-05-23T04:01:55;95630.81;;;15.14;74.31
31775;BME280;66189;49.000;11.640;2023-05-23T04:03:58;95636.53;;;15.27;73.44
31775;BME280;66189;49.000;11.640;2023-05-23T04:06:02;95639.25;;;15.27;73.68
31775;BME280;66189;49.000;11.640;2023-05-23T04:08:03;95641.16;;;15.34;73.37
31775;BME280;66189;49.000;11.640;2023-05-23T04:10:05;95641.97;;;15.27;73.50
31775;BME280;66189;49.000;11.640;2023-05-23T04:12:05;95654.06;;;15.08;74.65
31775;BME280;66189;49.000;11.640;2023-05-23T04:14:09;95644.72;;;15.16;74.30
31775;BME280;66189;49.000;11.640;2023-05-23T04:16:10;95653.97;;;15.22;73.78
31775;BME280;66189;49.000;11.640;2023-05-23T04:18:11;95659.75;;;15.35;73.80
31775;BME280;66189;49.000;11.640;2023-05-23T04:20:11;95649.28;;;15.30;73.77
31775;BME280;66189;49.000;11.640;2023-05-23T04:22:12;95646.59;;;15.30;73.72
31775;BME280;66189;49.000;11.640;2023-05-23T04:24:13;95652.38;;;15.36;74.10
31775;BME280;66189;49.000;11.640;2023-05-23T04:26:13;95656.28;;;15.27;74.56
31775;BME280;66189;49.000;11.640;2023-05-23T04:28:20;95659.41;;;15.26;74.99
31775;BME280;66189;49.000;11.640;2023-05-23T04:30:21;95650.09;;;15.31;74.89
31775;BME280;66189;49.000;11.640;2023-05-23T04:32:23;95657.44;;;15.34;74.79
31775;BME280;66189;49.000;11.640;2023-05-23T04:34:24;95659.34;;;15.33;74.80
31775;BME280;66189;49.000;11.640;2023-05-23T04:36:25;95660.88;;;15.38;74.91
31775;BME280;66189;49.000;11.640;2023-05-23T04:38:28;95656.63;;;15.33;75.02
31775;BME280;66189;49.000;11.640;2023-05-23T04:40:29;95657.81;;;15.32;75.30
31775;BME280;66189;49.000;11.640;2023-05-23T04:42:56;95660.88;;;15.41;75.25
31775;BME280;66189;49.000;11.640;2023-05-23T04:45:22;95663.53;;;15.45;74.71
31775;BME280;66189;49.000;11.640;2023-05-23T04:47:32;95661.66;;;15.38;75.41
31775;BME280;66189;49.000;11.640;2023-05-23T04:49:38;95665.00;;;15.60;74.44
31775;BME280;66189;49.000;11.640;2023-05-23T04:51:39;95658.81;;;15.60;74.58
31775;BME280;66189;49.000;11.640;2023-05-23T04:53:57;95661.53;;;15.60;74.36
31775;BME280;66189;49.000;11.640;2023-05-23T04:55:58;95669.69;;;15.53;74.51
31775;BME280;66189;49.000;11.640;2023-05-23T04:57:59;95677.75;;;15.63;74.47
31775;BME280;66189;49.000;11.640;2023-05-23T05:00:00;95666.91;;;15.63;74.20
31775;BME280;66189;49.000;11.640;2023-05-23T05:02:01;95661.03;;;15.76;74.04
31775;BME280;66189;49.000;11.640;2023-05-23T05:04:02;95667.28;;;15.69;74.96
31775;BME280;66189;49.000;11.640;2023-05-23T05:06:03;95665.66;;;15.83;73.80
31775;BME280;66189;49.000;11.640;2023-05-23T05:08:05;95668.66;;;15.99;73.19
31775;BME280;66189;49.000;11.640;2023-05-23T05:10:06;95670.56;;;16.02;73.57
31775;BME280;66189;49.000;11.640;2023-05-23T05:12:08;95674.53;;;15.90;74.05
31775;BME280;66189;49.000;11.640;2023-05-23T05:14:08;95677.13;;;16.05;73.51
31775;BME280;66189;49.000;11.640;2023-05-23T05:16:10;95673.22;;;16.09;73.30
31775;BME280;66189;49.000;11.640;2023-05-23T05:18:11;95682.94;;;16.07;73.79
31775;BME280;66189;49.000;11.640;2023-05-23T05:20:13;95685.56;;;16.17;73.38
31775;BME280;66189;49.000;11.640;2023-05-23T05:22:14;95692.06;;;16.27;72.83
31775;BME280;66189;49.000;11.640;2023-05-23T05:24:15;95695.13;;;16.33;72.66
31775;BME280;66189;49.000;11.640;2023-05-23T05:26:16;95689.59;;;16.44;72.36
31775;BME280;66189;49.000;11.640;2023-05-23T05:28:16;95690.81;;;16.39;72.40
31775;BME280;66189;49.000;11.640;2023-05-23T05:30:20;95688.50;;;16.38;72.91
31775;BME280;66189;49.000;11.640;2023-05-23T05:32:25;95694.41;;;16.67;72.18
31775;BME280;66189;49.000;11.640;2023-05-23T05:34:25;95695.63;;;16.62;72.37
31775;BME280;66189;49.000;11.640;2023-05-23T05:36:26;95699.44;;;16.72;72.36
31775;BME280;66189;49.000;11.640;2023-05-23T05:38:27;95700.94;;;16.73;72.16
31775;BME280;66189;49.000;11.640;2023-05-23T05:40:28;95698.69;;;16.68;72.34
31775;BME280;66189;49.000;11.640;2023-05-23T05:42:28;95701.22;;;16.86;71.90
31775;BME280;66189;49.000;11.640;2023-05-23T05:44:29;95704.03;;;16.75;72.30
31775;BME280;66189;49.000;11.640;2023-05-23T05:46:31;95705.81;;;16.96;71.90
31775;BME280;66189;49.000;11.640;2023-05-23T05:48:31;95697.75;;;16.85;72.33
31775;BME280;66189;49.000;11.640;2023-05-23T05:50:36;95699.22;;;16.94;71.88
31775;BME280;66189;49.000;11.640;2023-05-23T05:52:37;95698.88;;;16.88;72.98
31775;BME280;66189;49.000;11.640;2023-05-23T05:54:39;95701.22;;;16.86;72.70
31775;BME280;66189;49.000;11.640;2023-05-23T05:56:40;95708.59;;;16.85;72.28
31775;BME280;66189;49.000;11.640;2023-05-23T05:58:41;95697.31;;;16.49;72.91
31775;BME280;66189;49.000;11.640;2023-05-23T06:00:45;95708.09;;;16.60;73.28
31775;BME280;66189;49.000;11.640;2023-05-23T06:02:46;95721.09;;;16.79;72.57
31775;BME280;66189;49.000;11.640;2023-05-23T06:04:49;95712.00;;;16.55;73.77
31775;BME280;66189;49.000;11.640;2023-05-23T06:06:50;95713.75;;;16.76;73.29
31775;BME280;66189;49.000;11.640;2023-05-23T06:08:51;95719.19;;;16.73;73.61
31775;BME280;66189;49.000;11.640;2023-05-23T06:10:52;95727.09;;;16.60;74.52
31775;BME280;66189;49.000;11.640;2023-05-23T06:12:54;95726.13;;;16.77;74.19
31775;BME280;66189;49.000;11.640;2023-05-23T06:14:54;95727.00;;;16.70;73.99
31775;BME280;66189;49.000;11.640;2023-05-23T06:16:55;95730.56;;;16.60;73.46
31775;BME280;66189;49.000;11.640;2023-05-23T06:18:56;95724.06;;;16.50;73.33
31775;BME280;66189;49.000;11.640;2023-05-23T06:20:58;95727.09;;;16.60;72.92
31775;BME280;66189;49.000;11.640;2023-05-23T06:22:59;95729.50;;;16.50;73.70
31775;BME280;66189;49.000;11.640;2023-05-23T06:25:01;95731.81;;;16.52;73.43
31775;BME280;66189;49.000;11.640;2023-05-23T06:27:02;95731.88;;;16.45;73.91
31775;BME280;66189;49.000;11.640;2023-05-23T06:29:03;95738.06;;;16.49;73.98
31775;BME280;66189;49.000;11.640;2023-05-23T06:31:04;95737.00;;;16.32;74.19
31775;BME280;66189;49.000;11.640;2023-05-23T06:33:04;95735.00;;;16.43;74.50
31775;BME280;66189;49.000;11.640;2023-05-23T06:35:05;95736.31;;;16.69;73.83
31775;BME280;66189;49.000;11.640;2023-05-23T06:37:07;95731.31;;;16.64;73.63
31775;BME280;66189;49.000;11.640;2023-05-23T06:39:08;95733.47;;;16.84;73.54
31775;BME280;66189;49.000;11.640;2023-05-23T06:41:12;95735.94;;;17.09;73.26
31775;BME280;66189;49.000;11.640;2023-05-23T06:43:12;95739.94;;;17.32;73.10
31775;BME280;66189;49.000;11.640;2023-05-23T06:45:33;95741.84;;;17.38;72.46
31775;BME280;66189;49.000;11.640;2023-05-23T06:47:35;95745.91;;;17.19;71.22
31775;BME280;66189;49.000;11.640;2023-05-23T06:49:36;95738.63;;;17.13;71.67
31775;BME280;66189;49.000;11.640;2023-05-23T06:51:37;95738.50;;;17.23;71.20
31775;BME280;66189;49.000;11.640;2023-05-23T06:53:39;95738.00;;;17.32;71.71
31775;BME280;66189;49.000;11.640;2023-05-23T06:55:40;95741.09;;;17.34;72.03
31775;BME280;66189;49.000;11.640;2023-05-23T06:57:42;95745.03;;;17.30;71.77
31775;BME280;66189;49.000;11.640;2023-05-23T06:59:43;95751.16;;;17.37;71.81
31775;BME280;66189;49.000;11.640;2023-05-23T07:01:44;95751.00;;;17.17;70.53
31775;BME280;66189;49.000;11.640;2023-05-23T07:03:46;95751.69;;;16.87;71.84
31775;BME280;66189;49.000;11.640;2023-05-23T07:05:47;95758.94;;;17.01;70.54
31775;BME280;66189;49.000;11.640;2023-05-23T07:07:50;95762.28;;;17.12;71.66
31775;BME280;66189;49.000;11.640;2023-05-23T07:09:52;95752.56;;;17.15;71.06
31775;BME280;66189;49.000;11.640;2023-05-23T07:11:53;95756.50;;;17.10;71.46
31775;BME280;66189;49.000;11.640;2023-05-23T07:13:54;95762.59;;;17.21;71.03
31775;BME280;66189;49.000;11.640;2023-05-23T07:16:15;95762.97;;;17.23;70.58
31775;BME280;66189;49.000;11.640;2023-05-23T07:18:28;95761.91;;;17.14;70.28
31775;BME280;66189;49.000;11.640;2023-05-23T07:20:32;95767.53;;;17.30;70.48
31775;BME280;66189;49.000;11.640;2023-05-23T07:22:39;95770.31;;;17.27;70.92
31775;BME280;66189;49.000;11.640;2023-05-23T07:24:39;95772.97;;;17.30;71.28
31775;BME280;66189;49.000;11.640;2023-05-23T07:26:41;95769.38;;;17.40;70.57
31775;BME280;66189;49.000;11.640;2023-05-23T07:28:41;95770.13;;;17.41;70.09
31775;BME280;66189;49.000;11.640;2023-05-23T07:30:42;95771.56;;;17.53;69.83
31775;BME280;66189;49.000;11.640;2023-05-23T07:32:42;95777.72;;;17.57;69.80
31775;BME280;66189;49.000;11.640;2023-05-23T07:34:49;95780.13;;;17.51;70.52
31775;BME280;66189;49.000;11.640;2023-05-23T07:36:49;95777.06;;;17.46;69.78
31775;BME280;66189;49.000;11.640;2023-05-23T07:38:50;95776.25;;;17.49;69.61
31775;BME280;66189;49.000;11.640;2023-05-23T07:40:52;95775.56;;;17.41;69.78
31775;BME280;66189;49.000;11.640;2023-05-23T07:42:56;95778.97;;;17.52;69.48
31775;BME280;66189;49.000;11.640;2023-05-23T07:44:57;95770.00;;;17.52;69.36
31775;BME280;66189;49.000;11.640;2023-05-23T07:46:57;95775.28;;;17.66;69.05
31775;BME280;66189;49.000;11.640;2023-05-23T07:48:59;95781.31;;;17.81;69.81
31775;BME280;66189;49.000;11.640;2023-05-23T07:50:59;95773.81;;;17.92;68.96
31775;BME280;66189;49.000;11.640;2023-05-23T07:53:00;95780.59;;;18.08;68.64
31775;BME280;66189;49.000;11.640;2023-05-23T07:55:04;95772.78;;;18.37;67.57
31775;BME280;66189;49.000;11.640;2023-05-23T07:57:05;95777.22;;;18.51;68.49
31775;BME280;66189;49.000;11.640;2023-05-23T07:59:07;95772.25;;;18.70;67.35
31775;BME280;66189;49.000;11.640;2023-05-23T08:01:08;95778.31;;;18.57;67.31
31775;BME280;66189;49.000;11.640;2023-05-23T08:03:30;95777.06;;;18.62;66.19
31775;BME280;66189;49.000;11.640;2023-05-23T08:05:39;95784.09;;;18.59;66.08
31775;BME280;66189;49.000;11.640;2023-05-23T08:07:40;95775.34;;;18.95;66.79
31775;BME280;66189;49.000;11.640;2023-05-23T08:09:41;95775.88;;;19.10;65.67
31775;BME280;66189;49.000;11.640;2023-05-23T08:11:43;95783.84;;;19.21;64.37
31775;BME280;66189;49.000;11.640;2023-05-23T08:13:44;95775.31;;;19.19;64.06
31775;BME280;66189;49.000;11.640;2023-05-23T08:16:04;95781.88;;;19.02;64.84
31775;BME280;66189;49.000;11.640;2023-05-23T08:18:05;95777.38;;;18.91;64.66
31775;BME280;66189;49.000;11.640;2023-05-23T08:20:06;95779.41;;;18.83;65.64
31775;BME280;66189;49.000;11.640;2023-05-23T08:22:08;95783.88;;;18.97;65.94
31775;BME280;66189;49.000;11.640;2023-05-23T08:24:08;95788.25;;;18.91;64.93
31775;BME280;66189;49.000;11.640;2023-05-23T08:26:10;95785.19;;;18.89;64.82
31775;BME280;66189;49.000;11.640;2023-05-23T08:28:11;95784.09;;;19.07;64.10
31775;BME280;66189;49.000;11.640;2023-05-23T08:30:24;95793.28;;;19.16;65.06
31775;BME280;66189;49.000;11.640;2023-05-23T08:32:25;95788.22;;;18.95;64.49
31775;BME280;66189;49.000;11.640;2023-05-23T08:34:25;95787.03;;;18.96;65.37
31775;BME280;66189;49.000;11.640;2023-05-23T08:36:26;95799.66;;;18.82;65.04
31775;BME280;66189;49.000;11.640;2023-05-23T08:38:27;95799.69;;;18.59;65.02
31775;BME280;66189;49.000;11.640;2023-05-23T08:40:50;95794.63;;;18.81;64.89
31775;BME280;66189;49.000;11.640;2023-05-23T08:42:51;95804.03;;;18.80;65.28
31775;BME280;66189;49.000;11.640;2023-05-23T08:44:53;95799.88;;;18.95;64.26
31775;BME280;66189;49.000;11.640;2023-05-23T08:46:57;95800.75;;;18.89;64.20
31775;BME280;66189;49.000;11.640;2023-05-23T08:49:21;95800.41;;;18.87;63.55
31775;BME280;66189;49.000;11.640;2023-05-23T08:51:25;95804.16;;;18.96;64.77
31775;BME280;66189;49.000;11.640;2023-05-23T08:53:26;95806.16;;;18.92;63.98
31775;BME280;66189;49.000;11.640;2023-05-23T08:55:36;95808.00;;;18.99;64.72
31775;BME280;66189;49.000;11.640;2023-05-23T08:57:37;95807.13;;;19.06;64.41
31775;BME280;66189;49.000;11.640;2023-05-23T08:59:56;95822.00;;;19.01;65.63
31775;BME280;66189;49.000;11.640;2023-05-23T09:01:59;95808.41;;;18.97;65.09
31775;BME280;66189;49.000;11.640;2023-05-23T09:04:00;95819.81;;;18.92;65.00
31775;BME280;66189;49.000;11.640;2023-05-23T09:06:21;95817.91;;;18.89;63.87
31775;BME280;66189;49.000;11.640;2023-05-23T09:08:23;95821.41;;;18.62;65.05
31775;BME280;66189;49.000;11.640;2023-05-23T09:10:30;95816.56;;;18.74;64.60
31775;BME280;66189;49.000;11.640;2023-05-23T09:12:36;95823.50;;;18.78;64.15
31775;BME280;66189;49.000;11.640;2023-05-23T09:14:39;95829.81;;;18.72;64.56
31775;BME280;66189;49.000;11.640;2023-05-23T09:16:47;95828.97;;;18.78;64.89
31775;BME280;66189;49.000;11.640;2023-05-23T09:18:52;95833.97;;;18.56;64.01
31775;BME280;66189;49.000;11.640;2023-05-23T09:20:55;95831.19;;;18.83;63.66
31775;BME280;66189;49.000;11.640;2023-05-23T09:22:55;95835.91;;;18.83;64.68
31775;BME280;66189;49.000;11.640;2023-05-23T09:24:56;95833.44;;;18.92;63.31
31775;BME280;66189;49.000;11.640;2023-05-23T09:26:57;95833.28;;;18.76;64.61
31775;BME280;66189;49.000;11.640;2023-05-23T09:28:58;95841.00;;;19.05;63.78
31775;BME280;66189;49.000;11.640;2023-05-23T09:30:59;95826.53;;;19.08;64.03
31775;BME280;66189;49.000;11.640;2023-05-23T09:33:00;95834.13;;;19.20;63.61
31775;BME280;66189;49.000;11.640;2023-05-23T09:35:03;95832.66;;;19.15;62.98
31775;BME280;66189;49.000;11.640;2023-05-23T09:37:04;95839.56;;;19.20;62.29
31775;BME280;66189;49.000;11.640;2023-05-23T09:39:05;95833.41;;;19.16;62.95
31775;BME280;66189;49.000;11.640;2023-05-23T09:41:06;95828.94;;;19.06;62.57
31775;BME280;66189;49.000;11.640;2023-05-23T09:43:07;95834.50;;;19.22;62.92
31775;BME280;66189;49.000;11.640;2023-05-23T09:45:07;95839.47;;;19.47;62.99
31775;BME280;66189;49.000;11.640;2023-05-23T09:47:08;95834.94;;;19.41;61.35
31775;BME280;66189;49.000;11.640;2023-05-23T09:49:16;95843.47;;;19.63;62.73
31775;BME280;66189;49.000;11.640;2023-05-23T09:51:22;95837.69;;;19.81;61.77
31775;BME280;66189;49.000;11.640;2023-05-23T09:53:24;95846.38;;;19.96;62.21
31775;BME280;66189;49.000;11.640;2023-05-23T09:55:25;95847.75;;;19.84;61.27
31775;BME280;66189;49.000;11.640;2023-05-23T09:57:25;95844.50;;;19.69;60.69
31775;BME280;66189;49.000;11.640;2023-05-23T09:59:31;95844.63;;;19.85;61.32
31775;BME280;66189;49.000;11.640;2023-05-23T10:01:36;95841.88;;;19.85;60.36
31775;BME280;66189;49.000;11.640;2023-05-23T10:03:51;95843.47;;;19.83;61.91
31775;BME280;66189;49.000;11.640;2023-05-23T10:06:05;95842.91;;;19.51;60.81
31775;BME280;66189;49.000;11.640;2023-05-23T10:08:09;95840.31;;;19.64;61.95
31775;BME280;66189;49.000;11.640;2023-05-23T10:10:12;95844.81;;;19.55;63.31
31775;BME280;66189;49.000;11.640;2023-05-23T10:14:34;95847.88;;;19.57;63.60
31775;BME280;66189;49.000;11.640;2023-05-23T10:16:54;95851.84;;;19.52;62.21
31775;BME280;66189;49.000;11.640;2023-05-23T10:19:00;95844.22;;;19.43;61.83
31775;BME280;66189;49.000;11.640;2023-05-23T10:21:09;95845.75;;;19.44;61.89
31775;BME280;66189;49.000;11.640;2023-05-23T10:23:11;95836.97;;;19.13;62.22
31775;BME280;66189;49.000;11.640;2023-05-23T10:25:12;95843.47;;;19.43;62.28
31775;BME280;66189;49.000;11.640;2023-05-23T10:27:14;95842.00;;;19.58;61.21
31775;BME280;66189;49.000;11.640;2023-05-23T10:29:15;95841.16;;;19.61;61.13
31775;BME280;66189;49.000;11.640;2023-05-23T10:31:16;95846.72;;;19.78;61.24
31775;BME280;66189;49.000;11.640;2023-05-23T10:33:17;95849.22;;;20.09;58.89
31775;BME280;66189;49.000;11.640;2023-05-23T10:43:01;95838.72;;;19.87;59.00
31775;BME280;66189;49.000;11.640;2023-05-23T10:47:25;95851.97;;;19.88;56.71
31775;BME280;66189;49.000;11.640;2023-05-23T10:49:43;95848.34;;;20.12;57.69
31775;BME280;66189;49.000;11.640;2023-05-23T10:51:48;95843.56;;;20.36;56.04
31775;BME280;66189;49.000;11.640;2023-05-23T10:53:53;95849.44;;;20.34;55.58
31775;BME280;66189;49.000;11.640;2023-05-23T10:55:55;95844.44;;;20.49;56.78
31775;BME280;66189;49.000;11.640;2023-05-23T10:58:10;95854.41;;;20.39;57.09
31775;BME280;66189;49.000;11.640;2023-05-23T11:00:13;95849.44;;;20.34;55.96